Time;durP1;ratioP1;P1;durP2;ratioP2;P2;SDS_P1;SDS_P2;PMS_P1;PMS_P2;Temp;Humidity;BMP_temperature;BMP_pressure;BME280_temperature;BME280_humidity;BME280_pressure;Samples;Min_cycle;Max_cycle;Signal;HPM_P1;HPM_P2
2024/01/17 00:00:34;;;;;;;15.80;6.80;;;-1.90;99.90;;;;;;5094770;28;20197;-77
2024/01/17 00:03:00;;;;;;;16.57;6.83;;;-1.90;99.90;;;;;;5093786;28;20189;-78
2024/01/17 00:05:25;;;;;;;14.10;6.53;;;-2.00;99.90;;;;;;5094778;28;20170;-77
2024/01/17 00:07:51;;;;;;;11.53;6.90;;;-2.00;99.90;;;;;;5093800;28;20687;-77
2024/01/17 00:10:16;;;;;;;12.60;6.97;;;-2.00;99.90;;;;;;5093862;28;20185;-78
2024/01/17 00:12:42;;;;;;;12.27;6.93;;;-2.00;99.90;;;;;;5094067;28;20619;-78
2024/01/17 00:15:08;;;;;;;12.47;7.43;;;-2.00;99.90;;;;;;5095435;28;20313;-78
2024/01/17 00:17:33;;;;;;;15.50;6.90;;;-2.00;99.90;;;;;;5093712;28;20245;-76
2024/01/17 00:19:59;;;;;;;15.23;6.93;;;-2.00;99.90;;;;;;5095707;28;20177;-78
2024/01/17 00:22:24;;;;;;;12.77;6.63;;;-2.00;99.90;;;;;;5094070;28;20181;-78
2024/01/17 00:24:51;;;;;;;10.17;6.17;;;-2.10;99.90;;;;;;5094250;28;20184;-78
2024/01/17 00:27:18;;;;;;;10.97;6.97;;;-2.00;99.90;;;;;;5095419;28;20529;-78
2024/01/17 00:29:44;;;;;;;10.77;6.53;;;-2.10;99.90;;;;;;5095626;28;20667;-78
2024/01/17 00:32:09;;;;;;;17.90;7.17;;;-2.10;99.90;;;;;;5094454;28;20558;-78
2024/01/17 00:34:35;;;;;;;11.43;6.57;;;-2.10;99.90;;;;;;5095510;28;20190;-78
2024/01/17 00:37:01;;;;;;;15.80;7.00;;;-2.10;99.90;;;;;;5095038;28;20177;-78
2024/01/17 00:39:26;;;;;;;14.13;7.43;;;-2.10;99.90;;;;;;5093866;28;20197;-78
2024/01/17 00:41:52;;;;;;;14.53;7.47;;;-2.10;99.90;;;;;;5094200;28;20208;-77
2024/01/17 00:44:19;;;;;;;12.87;6.90;;;-2.10;99.90;;;;;;5093989;28;20185;-78
2024/01/17 00:46:45;;;;;;;12.13;6.37;;;-2.10;99.90;;;;;;5095269;28;20214;-78
2024/01/17 00:49:14;;;;;;;13.60;7.33;;;-2.20;99.90;;;;;;5095386;28;20644;-78
2024/01/17 00:51:39;;;;;;;11.53;7.10;;;-2.20;99.90;;;;;;5093745;28;20175;-78
2024/01/17 00:54:05;;;;;;;14.77;7.37;;;-2.20;99.90;;;;;;5095745;28;20546;-78
2024/01/17 00:56:32;;;;;;;12.67;6.77;;;-2.20;99.90;;;;;;5094070;28;20669;-78
2024/01/17 00:58:58;;;;;;;17.87;7.23;;;-2.20;99.90;;;;;;5095202;28;20189;-78
2024/01/17 01:01:24;;;;;;;13.33;7.07;;;-2.30;99.90;;;;;;5095160;28;20248;-78
2024/01/17 01:03:49;;;;;;;12.07;7.50;;;-2.20;99.90;;;;;;5093221;28;20711;-78
2024/01/17 01:06:15;;;;;;;10.80;6.10;;;-2.30;99.90;;;;;;5093547;28;20247;-77
2024/01/17 01:08:40;;;;;;;10.40;6.40;;;-2.30;99.90;;;;;;5095518;28;20190;-79
2024/01/17 01:11:07;;;;;;;12.33;6.53;;;-2.30;99.90;;;;;;5093248;28;20280;-77
2024/01/17 01:13:33;;;;;;;13.53;6.40;;;-2.30;99.90;;;;;;5094602;28;20623;-78
2024/01/17 01:15:58;;;;;;;13.53;6.67;;;-2.30;99.90;;;;;;5093271;28;20209;-78
2024/01/17 01:18:24;;;;;;;11.80;6.30;;;-2.30;99.90;;;;;;5094639;28;20202;-78
2024/01/17 01:20:49;;;;;;;11.97;5.87;;;-2.30;99.90;;;;;;5094728;28;20192;-78
2024/01/17 01:23:15;;;;;;;12.70;7.00;;;-2.30;99.90;;;;;;5099220;28;20176;-79
2024/01/17 01:25:40;;;;;;;15.53;6.60;;;-2.30;99.90;;;;;;5099637;28;20191;-79
2024/01/17 01:28:06;;;;;;;16.37;6.33;;;-2.30;99.90;;;;;;5094188;28;20207;-78
2024/01/17 01:30:31;;;;;;;11.63;6.20;;;-2.30;99.90;;;;;;5094227;28;20645;-78
2024/01/17 01:32:57;;;;;;;12.07;6.80;;;-2.30;99.90;;;;;;5093744;28;20217;-79
2024/01/17 01:35:22;;;;;;;15.40;6.43;;;-2.30;99.90;;;;;;5095153;28;20220;-78
2024/01/17 01:37:48;;;;;;;9.30;6.13;;;-2.40;99.90;;;;;;5094912;28;20198;-78
2024/01/17 01:40:14;;;;;;;15.67;5.90;;;-2.30;99.90;;;;;;5093463;28;20261;-78
2024/01/17 01:42:43;;;;;;;12.03;6.47;;;-2.30;99.90;;;;;;5093007;28;20205;-78
2024/01/17 01:45:09;;;;;;;7.87;4.90;;;-2.30;99.90;;;;;;5093084;28;20204;-78
2024/01/17 01:47:35;;;;;;;12.50;6.43;;;-2.30;99.90;;;;;;5091654;28;20201;-77
2024/01/17 01:50:01;;;;;;;11.13;5.97;;;-2.40;99.90;;;;;;5093273;28;20181;-79
2024/01/17 01:52:27;;;;;;;13.07;5.37;;;-2.40;99.90;;;;;;5093395;28;20178;-78
2024/01/17 01:54:54;;;;;;;11.00;5.57;;;-2.30;99.90;;;;;;5096997;28;20200;-77
2024/01/17 01:57:21;;;;;;;10.43;6.10;;;-2.40;99.90;;;;;;5097686;28;20178;-77
2024/01/17 01:59:47;;;;;;;8.67;6.10;;;-2.40;99.90;;;;;;5098457;28;20243;-78
2024/01/17 02:02:14;;;;;;;12.17;6.17;;;-2.40;99.90;;;;;;5100398;28;20653;-77
2024/01/17 02:04:41;;;;;;;12.60;5.80;;;-2.40;99.90;;;;;;5100324;28;20197;-78
2024/01/17 02:07:08;;;;;;;10.17;6.13;;;-2.40;99.90;;;;;;5096393;28;20185;-78
2024/01/17 02:09:34;;;;;;;11.60;5.90;;;-2.40;99.90;;;;;;5094997;28;20347;-78
2024/01/17 02:12:00;;;;;;;10.53;5.57;;;-2.40;99.90;;;;;;5093338;28;20223;-78
2024/01/17 02:14:25;;;;;;;9.83;5.50;;;-2.40;99.90;;;;;;5095121;28;20205;-78
2024/01/17 02:16:51;;;;;;;14.00;5.93;;;-2.40;99.90;;;;;;5094500;28;20175;-78
2024/01/17 02:19:17;;;;;;;7.63;5.43;;;-2.40;99.90;;;;;;5093039;28;20207;-78
2024/01/17 02:21:43;;;;;;;9.23;5.50;;;-2.40;99.90;;;;;;5094607;28;20174;-78
2024/01/17 02:24:15;;;;;;;10.67;5.77;;;-2.40;99.90;;;;;;5094276;28;20192;-78
2024/01/17 02:26:40;;;;;;;7.33;5.60;;;-2.40;99.90;;;;;;5094340;28;20192;-78
2024/01/17 02:29:06;;;;;;;9.57;5.57;;;-2.40;99.90;;;;;;5094344;28;20226;-78
2024/01/17 02:31:32;;;;;;;12.47;5.87;;;-2.40;99.90;;;;;;5093953;28;20173;-78
2024/01/17 02:33:57;;;;;;;9.87;5.83;;;-2.40;99.90;;;;;;5093640;28;20243;-78
2024/01/17 02:36:23;;;;;;;10.63;6.00;;;-2.40;99.90;;;;;;5093128;28;20174;-78
2024/01/17 02:38:48;;;;;;;9.67;6.07;;;-2.30;99.90;;;;;;5092615;28;20231;-78
2024/01/17 02:41:14;;;;;;;11.03;5.73;;;-2.30;99.90;;;;;;5093932;28;20163;-78
2024/01/17 02:43:40;;;;;;;11.07;5.67;;;-2.30;99.90;;;;;;5093883;28;20185;-78
2024/01/17 02:46:05;;;;;;;13.10;6.33;;;-2.30;99.90;;;;;;5092361;28;20178;-78
2024/01/17 02:48:31;;;;;;;11.47;6.03;;;-2.30;99.90;;;;;;5092454;28;20638;-78
2024/01/17 02:50:56;;;;;;;11.87;6.00;;;-2.30;99.90;;;;;;5094062;28;20186;-78
2024/01/17 02:53:22;;;;;;;11.80;6.10;;;-2.30;99.90;;;;;;5092025;28;20201;-78
2024/01/17 02:55:47;;;;;;;10.30;6.47;;;-2.30;99.90;;;;;;5092057;28;20180;-78
2024/01/17 02:58:13;;;;;;;14.47;6.07;;;-2.30;99.90;;;;;;5092555;28;20193;-78
2024/01/17 03:00:42;;;;;;;10.27;6.00;;;-2.30;99.90;;;;;;5097424;28;20587;-78
2024/01/17 03:03:09;;;;;;;10.67;6.33;;;-2.30;99.90;;;;;;5096045;28;20173;-78
2024/01/17 03:05:34;;;;;;;12.20;6.47;;;-2.30;99.90;;;;;;5095942;28;20180;-78
2024/01/17 03:08:00;;;;;;;14.73;6.50;;;-2.30;99.90;;;;;;5097135;28;20185;-78
2024/01/17 03:10:25;;;;;;;12.70;5.53;;;-2.30;99.90;;;;;;5095685;28;20562;-78
2024/01/17 03:12:51;;;;;;;9.37;6.10;;;-2.30;99.90;;;;;;5097569;28;20170;-78
2024/01/17 03:15:16;;;;;;;11.33;6.83;;;-2.30;99.90;;;;;;5096924;28;20668;-78
2024/01/17 03:17:42;;;;;;;16.30;7.00;;;-2.30;99.90;;;;;;5097437;28;20188;-78
2024/01/17 03:20:10;;;;;;;11.87;6.60;;;-2.30;99.90;;;;;;5095701;28;20184;-78
2024/01/17 03:22:36;;;;;;;14.17;6.97;;;-2.30;99.90;;;;;;5095963;28;20174;-79
2024/01/17 03:25:02;;;;;;;11.97;6.47;;;-2.30;99.90;;;;;;5096410;28;20181;-78
2024/01/17 03:27:28;;;;;;;12.30;6.30;;;-2.30;99.90;;;;;;5096821;28;20178;-78
2024/01/17 03:29:53;;;;;;;14.90;6.77;;;-2.30;99.90;;;;;;5095514;28;20174;-78
2024/01/17 03:32:19;;;;;;;12.53;6.60;;;-2.30;99.90;;;;;;5096750;28;20182;-79
2024/01/17 03:34:44;;;;;;;11.37;6.53;;;-2.30;99.90;;;;;;5095629;28;20218;-78
2024/01/17 03:37:10;;;;;;;9.60;7.07;;;-2.30;99.90;;;;;;5096760;28;20627;-78
2024/01/17 03:39:36;;;;;;;12.47;6.60;;;-2.30;99.90;;;;;;5096647;28;20197;-78
2024/01/17 03:42:01;;;;;;;12.33;6.80;;;-2.30;99.90;;;;;;5095326;28;20180;-79
2024/01/17 03:44:27;;;;;;;15.17;6.10;;;-2.40;99.90;;;;;;5096007;28;20272;-78
2024/01/17 03:46:52;;;;;;;11.87;6.67;;;-2.30;99.90;;;;;;5097186;28;20198;-78
2024/01/17 03:49:18;;;;;;;12.53;6.77;;;-2.30;99.90;;;;;;5097162;28;20256;-78
2024/01/17 03:51:44;;;;;;;11.17;6.67;;;-2.30;99.90;;;;;;5096459;28;20201;-79
2024/01/17 03:54:09;;;;;;;13.67;6.93;;;-2.30;99.90;;;;;;5095178;28;20199;-78
2024/01/17 03:56:35;;;;;;;11.47;6.70;;;-2.30;99.90;;;;;;5095338;28;20197;-78
2024/01/17 03:59:00;;;;;;;13.97;7.20;;;-2.40;99.90;;;;;;5104232;28;20189;-78
2024/01/17 04:01:26;;;;;;;12.70;6.63;;;-2.30;99.90;;;;;;5096886;28;20667;-77
2024/01/17 04:03:53;;;;;;;11.00;6.47;;;-2.30;99.90;;;;;;5103621;28;20184;-77
2024/01/17 04:06:19;;;;;;;11.80;6.40;;;-2.30;99.90;;;;;;5094730;28;20175;-77
2024/01/17 04:08:45;;;;;;;12.03;7.00;;;-2.30;99.90;;;;;;5095951;28;20193;-78
2024/01/17 04:11:10;;;;;;;12.30;7.23;;;-2.30;99.90;;;;;;5094979;28;20596;-78
2024/01/17 04:13:36;;;;;;;10.67;6.33;;;-2.30;99.90;;;;;;5094301;28;20205;-77
2024/01/17 04:16:01;;;;;;;11.77;6.80;;;-2.30;99.90;;;;;;5094565;28;20178;-79
2024/01/17 04:18:27;;;;;;;10.67;7.33;;;-2.30;99.90;;;;;;5094475;28;20706;-76
2024/01/17 04:20:52;;;;;;;13.90;7.03;;;-2.30;99.90;;;;;;5096038;28;20700;-78
2024/01/17 04:23:18;;;;;;;13.27;6.90;;;-2.30;99.90;;;;;;5096158;28;20177;-78
2024/01/17 04:25:43;;;;;;;10.63;6.93;;;-2.30;99.90;;;;;;5095558;28;20272;-78
2024/01/17 04:28:09;;;;;;;11.53;6.73;;;-2.30;99.90;;;;;;5094276;28;20190;-79
2024/01/17 04:30:35;;;;;;;11.60;6.50;;;-2.30;99.90;;;;;;5094107;28;20637;-78
2024/01/17 04:33:00;;;;;;;12.07;7.57;;;-2.40;99.90;;;;;;5094448;28;20207;-78
2024/01/17 04:35:26;;;;;;;15.03;7.60;;;-2.40;99.90;;;;;;5093852;28;20224;-78
2024/01/17 04:37:53;;;;;;;12.20;7.27;;;-2.40;99.90;;;;;;5095669;28;20194;-78
2024/01/17 04:40:18;;;;;;;13.97;8.13;;;-2.30;99.90;;;;;;5095221;28;20186;-77
2024/01/17 04:42:48;;;;;;;16.67;8.27;;;-2.30;99.90;;;;;;5093322;28;20640;-78
2024/01/17 04:45:14;;;;;;;12.03;7.70;;;-2.30;99.90;;;;;;5095357;28;20591;-78
2024/01/17 04:47:40;;;;;;;12.83;7.03;;;-2.30;99.90;;;;;;5093992;28;20219;-78
2024/01/17 04:50:05;;;;;;;14.47;7.03;;;-2.40;99.90;;;;;;5095018;28;20178;-77
2024/01/17 04:52:31;;;;;;;12.33;7.43;;;-2.30;99.90;;;;;;5093354;28;20227;-78
2024/01/17 04:54:56;;;;;;;15.53;7.90;;;-2.30;99.90;;;;;;5093550;28;20209;-78
2024/01/17 04:57:22;;;;;;;12.40;7.63;;;-2.30;99.90;;;;;;5094846;28;20185;-78
2024/01/17 04:59:47;;;;;;;16.33;8.27;;;-2.40;99.90;;;;;;5095417;28;20181;-78
2024/01/17 05:02:13;;;;;;;17.23;7.97;;;-2.40;99.90;;;;;;5094041;28;20174;-78
2024/01/17 05:04:38;;;;;;;14.00;8.13;;;-2.40;99.90;;;;;;5095299;28;20185;-78
2024/01/17 05:07:04;;;;;;;12.60;8.03;;;-2.40;99.90;;;;;;5093244;28;20177;-78
2024/01/17 05:09:29;;;;;;;11.80;7.13;;;-2.40;99.90;;;;;;5094440;28;20190;-79
2024/01/17 05:11:58;;;;;;;12.40;7.50;;;-2.40;99.90;;;;;;5094600;28;20181;-78
2024/01/17 05:14:23;;;;;;;15.47;7.83;;;-2.40;99.90;;;;;;5093293;28;20247;-78
2024/01/17 05:16:50;;;;;;;13.77;8.30;;;-2.30;99.90;;;;;;5094331;28;20203;-78
2024/01/17 05:19:17;;;;;;;14.47;8.10;;;-2.40;99.90;;;;;;5094301;28;20194;-78
2024/01/17 05:21:42;;;;;;;13.03;7.70;;;-2.40;99.90;;;;;;5093892;28;20200;-77
2024/01/17 05:24:08;;;;;;;17.20;8.70;;;-2.40;99.90;;;;;;5094799;28;20174;-79
2024/01/17 05:26:33;;;;;;;15.43;8.37;;;-2.40;99.90;;;;;;5094836;28;20206;-78
2024/01/17 05:28:59;;;;;;;11.60;8.10;;;-2.40;99.90;;;;;;5094299;28;20201;-78
2024/01/17 05:31:24;;;;;;;13.83;8.53;;;-2.40;99.90;;;;;;5094223;28;20208;-78
2024/01/17 05:33:50;;;;;;;15.57;8.73;;;-2.40;99.90;;;;;;5092407;28;20209;-78
2024/01/17 05:36:15;;;;;;;12.50;8.63;;;-2.40;99.90;;;;;;5094123;28;20170;-77
2024/01/17 05:38:41;;;;;;;13.73;8.33;;;-2.40;99.90;;;;;;5092504;28;20188;-78
2024/01/17 05:41:06;;;;;;;15.03;8.70;;;-2.40;99.90;;;;;;5093185;28;20181;-77
2024/01/17 05:43:32;;;;;;;23.10;11.23;;;-2.40;99.90;;;;;;5091216;28;20181;-78
2024/01/17 05:45:57;;;;;;;25.83;14.53;;;-2.30;99.90;;;;;;5092289;28;20171;-77
2024/01/17 05:48:26;;;;;;;20.97;12.27;;;-2.40;99.90;;;;;;5092095;28;20208;-77
2024/01/17 05:50:52;;;;;;;13.43;9.73;;;-2.40;99.90;;;;;;5092401;28;20181;-77
2024/01/17 05:53:18;;;;;;;15.90;10.23;;;-2.40;99.90;;;;;;5091706;28;20185;-78
2024/01/17 05:55:44;;;;;;;12.80;8.43;;;-2.30;99.90;;;;;;5093489;28;20277;-77
2024/01/17 05:58:09;;;;;;;17.73;9.80;;;-2.30;99.90;;;;;;5091711;28;20672;-78
2024/01/17 06:00:35;;;;;;;20.33;9.33;;;-2.30;99.90;;;;;;5093925;28;20177;-78
2024/01/17 06:03:01;;;;;;;21.33;9.77;;;-2.30;99.90;;;;;;5093740;28;20699;-78
2024/01/17 06:05:26;;;;;;;19.30;9.00;;;-2.30;99.90;;;;;;5093650;28;20322;-77
2024/01/17 06:07:52;;;;;;;16.70;8.87;;;-2.30;99.90;;;;;;5091641;28;20197;-77
2024/01/17 06:10:17;;;;;;;15.90;9.63;;;-2.30;99.90;;;;;;5093255;28;20200;-78
2024/01/17 06:12:43;;;;;;;14.43;8.93;;;-2.30;99.90;;;;;;5092964;28;20184;-78
2024/01/17 06:15:10;;;;;;;16.90;9.27;;;-2.30;99.90;;;;;;5091404;28;20205;-77
2024/01/17 06:17:35;;;;;;;12.07;8.13;;;-2.20;99.90;;;;;;5092649;28;20200;-77
2024/01/17 06:20:01;;;;;;;14.43;8.77;;;-2.20;99.90;;;;;;5092538;28;20227;-77
2024/01/17 06:22:27;;;;;;;13.70;8.70;;;-2.30;99.90;;;;;;5092650;28;20189;-77
2024/01/17 06:24:52;;;;;;;13.93;8.90;;;-2.20;99.90;;;;;;5092825;28;20186;-77
2024/01/17 06:27:18;;;;;;;15.63;8.83;;;-2.20;99.90;;;;;;5091100;28;20187;-77
2024/01/17 06:29:45;;;;;;;12.37;8.20;;;-2.20;99.90;;;;;;5093221;28;20302;-77
2024/01/17 06:32:12;;;;;;;14.93;8.50;;;-2.20;99.90;;;;;;5092549;28;20201;-77
2024/01/17 06:34:37;;;;;;;18.87;8.90;;;-2.20;99.90;;;;;;5094781;28;20202;-77
2024/01/17 06:37:06;;;;;;;10.97;8.27;;;-2.20;99.90;;;;;;5096302;28;20184;-77
2024/01/17 06:39:33;;;;;;;14.40;7.73;;;-2.10;99.90;;;;;;5095110;28;20226;-78
2024/01/17 06:41:59;;;;;;;13.63;8.43;;;-2.10;99.90;;;;;;5096225;28;20169;-77
2024/01/17 06:44:28;;;;;;;13.93;8.40;;;-2.10;99.90;;;;;;5095822;28;20489;-78
2024/01/17 06:46:55;;;;;;;13.80;7.40;;;-2.10;99.90;;;;;;5097313;28;20630;-78
2024/01/17 06:49:21;;;;;;;15.80;7.63;;;-2.10;99.90;;;;;;5095003;28;20550;-77
2024/01/17 06:51:47;;;;;;;13.20;8.73;;;-2.10;99.90;;;;;;5096369;28;20217;-78
2024/01/17 06:54:13;;;;;;;17.33;8.70;;;-2.10;99.90;;;;;;5096060;28;20295;-78
2024/01/17 06:56:38;;;;;;;15.33;7.93;;;-2.10;99.90;;;;;;5096581;28;20322;-75
2024/01/17 06:59:04;;;;;;;17.30;8.63;;;-2.10;99.90;;;;;;5096426;28;20203;-78
2024/01/17 07:01:30;;;;;;;13.83;7.80;;;-2.10;99.90;;;;;;5095390;28;20185;-78
2024/01/17 07:03:55;;;;;;;16.67;8.60;;;-2.10;99.90;;;;;;5096315;28;20214;-77
2024/01/17 07:06:21;;;;;;;15.30;8.37;;;-2.00;99.90;;;;;;5097938;28;20494;-77
2024/01/17 07:08:47;;;;;;;15.10;8.00;;;-2.00;99.90;;;;;;5100776;28;20219;-78
2024/01/17 07:11:13;;;;;;;12.43;7.40;;;-2.00;99.90;;;;;;5097130;28;20170;-77
2024/01/17 07:13:39;;;;;;;14.63;7.53;;;-2.00;99.90;;;;;;5095636;28;20661;-76
2024/01/17 07:16:05;;;;;;;13.93;8.10;;;-2.00;99.90;;;;;;5095638;28;20174;-77
2024/01/17 07:18:31;;;;;;;14.43;7.30;;;-2.00;99.90;;;;;;5095470;28;20202;-78
2024/01/17 07:20:56;;;;;;;17.07;8.47;;;-2.00;99.90;;;;;;5094163;28;20186;-78
2024/01/17 07:23:22;;;;;;;17.87;9.00;;;-2.00;99.90;;;;;;5093988;28;20177;-77
2024/01/17 07:25:47;;;;;;;15.10;9.00;;;-2.00;99.90;;;;;;5094936;28;20622;-77
2024/01/17 07:28:19;;;;;;;14.73;8.87;;;-2.00;99.90;;;;;;5093397;28;20741;-77
2024/01/17 07:30:44;;;;;;;10.90;7.50;;;-2.00;99.90;;;;;;5095115;28;20670;-77
2024/01/17 07:33:10;;;;;;;12.03;7.43;;;-1.90;99.90;;;;;;5094840;28;20196;-76
2024/01/17 07:35:35;;;;;;;14.60;8.40;;;-1.90;99.90;;;;;;5094684;28;20679;-77
2024/01/17 07:38:02;;;;;;;15.07;8.03;;;-1.90;99.90;;;;;;5093197;28;20633;-76
2024/01/17 07:40:28;;;;;;;15.20;7.50;;;-1.90;99.90;;;;;;5094607;28;20170;-75
2024/01/17 07:42:53;;;;;;;13.93;7.83;;;-1.90;99.90;;;;;;5094608;28;20663;-77
2024/01/17 07:45:20;;;;;;;12.47;8.03;;;-1.90;99.90;;;;;;5092479;28;20176;-77
2024/01/17 07:47:45;;;;;;;14.70;8.40;;;-1.90;99.90;;;;;;5094443;28;20185;-77
2024/01/17 07:50:11;;;;;;;12.33;7.67;;;-1.90;99.90;;;;;;5093076;28;20246;-77
2024/01/17 07:52:38;;;;;;;12.97;7.63;;;-1.80;99.90;;;;;;5094288;28;20389;-77
2024/01/17 07:55:04;;;;;;;15.83;7.53;;;-1.80;99.90;;;;;;5094279;28;20193;-77
2024/01/17 07:57:29;;;;;;;10.60;6.83;;;-1.80;99.90;;;;;;5094167;28;20196;-77
2024/01/17 07:59:55;;;;;;;12.93;7.10;;;-1.80;99.90;;;;;;5093172;28;20174;-77
2024/01/17 08:02:20;;;;;;;16.43;8.30;;;-1.80;99.90;;;;;;5092767;28;20176;-77
2024/01/17 08:04:48;;;;;;;15.80;7.67;;;-1.80;99.90;;;;;;5094153;28;20173;-77
2024/01/17 08:07:13;;;;;;;11.67;7.23;;;-1.70;99.90;;;;;;5092841;28;20656;-77
2024/01/17 08:09:39;;;;;;;13.13;7.17;;;-1.80;99.90;;;;;;5094233;28;20196;-77
2024/01/17 08:12:05;;;;;;;11.23;7.17;;;-1.70;99.90;;;;;;5093418;28;20189;-77
2024/01/17 08:14:30;;;;;;;12.83;7.20;;;-1.70;99.90;;;;;;5095078;28;20229;-76
2024/01/17 08:16:56;;;;;;;15.20;8.07;;;-1.70;99.90;;;;;;5092589;28;20215;-76
2024/01/17 08:19:21;;;;;;;12.07;7.40;;;-1.70;99.90;;;;;;5093988;28;20236;-76
2024/01/17 08:21:48;;;;;;;14.50;7.70;;;-1.70;99.90;;;;;;5093751;28;20269;-77
2024/01/17 08:24:14;;;;;;;14.67;8.17;;;-1.70;99.90;;;;;;5092394;28;20230;-77
2024/01/17 08:26:40;;;;;;;13.57;7.40;;;-1.60;99.90;;;;;;5093715;28;20608;-77
2024/01/17 08:29:05;;;;;;;12.67;7.43;;;-1.60;99.90;;;;;;5093562;28;20732;-77
2024/01/17 08:31:31;;;;;;;12.17;7.27;;;-1.60;99.90;;;;;;5092383;28;20299;-77
2024/01/17 08:33:57;;;;;;;13.17;7.07;;;-1.60;99.90;;;;;;5093511;28;20248;-77
2024/01/17 08:36:23;;;;;;;13.50;6.93;;;-1.60;99.90;;;;;;5092327;28;20523;-75
2024/01/17 08:38:49;;;;;;;15.70;7.20;;;-1.60;99.90;;;;;;5093572;28;20619;-77
2024/01/17 08:41:21;;;;;;;12.13;7.00;;;-1.50;99.90;;;;;;5093389;28;20361;-77
2024/01/17 08:43:46;;;;;;;10.80;6.50;;;-1.50;99.90;;;;;;5093710;28;20165;-77
2024/01/17 08:46:13;;;;;;;8.50;6.07;;;-1.50;99.90;;;;;;5093864;28;20192;-77
2024/01/17 08:48:40;;;;;;;10.30;6.77;;;-1.50;99.90;;;;;;5092036;28;20205;-77
2024/01/17 08:51:07;;;;;;;9.03;5.97;;;-1.40;99.90;;;;;;5093595;28;20252;-76
2024/01/17 08:53:33;;;;;;;17.27;7.57;;;-1.40;99.90;;;;;;5093352;28;20601;-77
2024/01/17 08:56:00;;;;;;;13.00;7.20;;;-1.40;99.90;;;;;;5093386;28;20204;-77
2024/01/17 08:58:25;;;;;;;16.70;8.30;;;-1.30;99.90;;;;;;5092114;28;20543;-76
2024/01/17 09:00:51;;;;;;;16.90;8.30;;;-1.30;99.90;;;;;;5093223;28;20170;-76
2024/01/17 09:03:17;;;;;;;14.57;8.37;;;-1.30;99.90;;;;;;5091742;28;20178;-77
2024/01/17 09:05:42;;;;;;;14.53;7.73;;;-1.20;99.90;;;;;;5091682;28;20595;-77
2024/01/17 09:08:08;;;;;;;13.30;6.90;;;-1.20;99.90;;;;;;5093056;28;20330;-77
2024/01/17 09:10:34;;;;;;;10.50;6.13;;;-1.20;99.90;;;;;;5092932;28;20249;-77
2024/01/17 09:12:59;;;;;;;9.53;6.60;;;-1.10;99.90;;;;;;5093145;28;20170;-77
2024/01/17 09:15:25;;;;;;;13.77;6.90;;;-1.10;99.90;;;;;;5092667;28;20281;-77
2024/01/17 09:17:51;;;;;;;11.97;7.00;;;-1.10;99.90;;;;;;5093036;28;20486;-77
2024/01/17 09:20:17;;;;;;;13.10;6.87;;;-1.00;99.90;;;;;;5091541;28;20174;-77
2024/01/17 09:22:42;;;;;;;14.10;6.63;;;-1.00;99.90;;;;;;5091488;28;20554;-76
2024/01/17 09:25:08;;;;;;;11.43;7.03;;;-1.00;99.90;;;;;;5092749;28;20672;-77
2024/01/17 09:27:34;;;;;;;13.87;7.07;;;-0.90;99.90;;;;;;5092723;28;20175;-77
2024/01/17 09:30:00;;;;;;;16.67;6.90;;;-0.90;99.90;;;;;;5091419;28;20680;-77
2024/01/17 09:32:26;;;;;;;11.60;6.93;;;-0.90;99.90;;;;;;5092776;28;20194;-76
2024/01/17 09:34:52;;;;;;;12.97;6.60;;;-0.80;99.90;;;;;;5091108;28;20592;-77
2024/01/17 09:37:19;;;;;;;11.50;6.73;;;-0.80;99.90;;;;;;5091549;28;20198;-76
2024/01/17 09:39:44;;;;;;;13.03;7.30;;;-0.80;99.90;;;;;;5092850;28;20197;-77
2024/01/17 09:42:13;;;;;;;11.17;7.00;;;-0.80;99.90;;;;;;5092652;28;20177;-77
2024/01/17 09:44:39;;;;;;;11.60;6.33;;;-0.70;99.90;;;;;;5091335;28;20174;-77
2024/01/17 09:47:05;;;;;;;15.93;7.47;;;-0.60;99.90;;;;;;5092614;28;20260;-77
2024/01/17 09:49:34;;;;;;;14.30;6.70;;;-0.60;99.90;;;;;;5092711;28;20201;-76
2024/01/17 09:52:04;;;;;;;18.63;6.83;;;-0.60;99.90;;;;;;5091328;28;20181;-76
2024/01/17 09:54:36;;;;;;;13.80;7.03;;;-0.50;99.90;;;;;;5092467;28;20564;-76
2024/01/17 09:57:07;;;;;;;11.20;6.13;;;-0.50;99.90;;;;;;5091110;28;20169;-77
2024/01/17 09:59:37;;;;;;;11.47;7.03;;;-0.50;99.90;;;;;;5092437;28;20189;-77
2024/01/17 10:02:05;;;;;;;12.13;6.80;;;-0.40;99.90;;;;;;5091293;28;20166;-77
2024/01/17 10:04:31;;;;;;;10.83;7.07;;;-0.40;99.90;;;;;;5091197;28;20231;-75
2024/01/17 10:06:57;;;;;;;14.27;6.57;;;-0.40;99.90;;;;;;5090990;28;20195;-76
2024/01/17 10:09:26;;;;;;;10.30;6.70;;;-0.40;99.90;;;;;;5096565;28;20193;-77
2024/01/17 10:11:52;;;;;;;10.50;7.03;;;-0.30;99.90;;;;;;5096709;28;20177;-77
2024/01/17 10:14:18;;;;;;;8.77;6.37;;;-0.30;99.90;;;;;;5095170;28;20554;-78
2024/01/17 10:16:45;;;;;;;10.60;6.40;;;-0.30;99.90;;;;;;5095403;28;20181;-77
2024/01/17 10:19:11;;;;;;;15.40;7.10;;;-0.30;99.90;;;;;;5095275;28;20229;-77
2024/01/17 10:21:36;;;;;;;11.57;6.33;;;-0.20;99.90;;;;;;5095481;28;20209;-77
2024/01/17 10:24:03;;;;;;;9.67;6.73;;;-0.20;99.90;;;;;;5095278;28;20193;-77
2024/01/17 10:26:30;;;;;;;10.27;7.03;;;-0.20;99.90;;;;;;5096643;28;20170;-76
2024/01/17 10:28:57;;;;;;;12.23;7.07;;;-0.20;99.90;;;;;;5095020;28;20202;-77
2024/01/17 10:31:24;;;;;;;11.00;6.77;;;-0.20;99.90;;;;;;5095012;28;20185;-78
2024/01/17 10:33:51;;;;;;;11.00;6.70;;;-0.20;99.90;;;;;;5096510;28;20248;-77
2024/01/17 10:36:16;;;;;;;11.47;6.97;;;-0.20;99.90;;;;;;5096560;28;20175;-78
2024/01/17 10:38:42;;;;;;;15.30;7.40;;;-0.10;99.90;;;;;;5096415;28;20687;-77
2024/01/17 10:41:08;;;;;;;13.23;6.57;;;-0.10;99.90;;;;;;5097808;28;20178;-78
2024/01/17 10:43:55;;;;;;;11.57;7.53;;;-0.10;99.90;;;;;;5096401;28;20177;-77
2024/01/17 10:46:21;;;;;;;9.70;6.87;;;-0.10;99.90;;;;;;5095681;28;20175;-77
2024/01/17 10:48:47;;;;;;;10.23;6.30;;;-0.10;99.90;;;;;;5096308;28;20261;-77
2024/01/17 10:51:20;;;;;;;12.10;7.33;;;-0.10;99.90;;;;;;5096353;28;20174;-77
2024/01/17 10:53:52;;;;;;;13.50;7.57;;;0.00;99.90;;;;;;5094639;28;20201;-78
2024/01/17 10:56:19;;;;;;;10.03;6.63;;;0.00;99.90;;;;;;5094760;28;20302;-78
2024/01/17 10:58:49;;;;;;;10.33;6.63;;;0.00;99.90;;;;;;5094708;28;20247;-77
2024/01/17 11:01:23;;;;;;;11.33;7.63;;;0.00;99.90;;;;;;5095427;28;20303;-77
2024/01/17 11:03:52;;;;;;;10.63;6.80;;;0.00;99.90;;;;;;5094973;28;20184;-77
2024/01/17 11:06:19;;;;;;;9.43;7.03;;;0.00;99.90;;;;;;5095570;28;20189;-78
2024/01/17 11:08:46;;;;;;;10.30;6.87;;;0.10;99.90;;;;;;5096618;28;20212;-78
2024/01/17 11:11:13;;;;;;;11.50;6.80;;;0.10;99.90;;;;;;5095410;28;20186;-77
2024/01/17 11:13:42;;;;;;;10.83;6.93;;;0.10;99.90;;;;;;5093878;28;20180;-75
2024/01/17 11:16:08;;;;;;;10.47;6.97;;;0.10;99.90;;;;;;5090586;28;20209;-77
2024/01/17 11:18:36;;;;;;;13.30;7.13;;;0.10;99.90;;;;;;5089837;28;20619;-77
2024/01/17 11:21:04;;;;;;;14.73;7.80;;;0.10;99.90;;;;;;5091771;28;20538;-77
2024/01/17 11:23:39;;;;;;;12.67;7.17;;;0.20;99.90;;;;;;5091875;28;20260;-77
2024/01/17 11:26:26;;;;;;;11.57;7.23;;;0.20;99.90;;;;;;5092616;28;20169;-78
2024/01/17 11:29:13;;;;;;;10.47;7.53;;;0.20;99.90;;;;;;5093635;28;20647;-77
2024/01/17 11:32:04;;;;;;;14.60;7.77;;;0.20;99.90;;;;;;5093917;28;20166;-77
2024/01/17 11:34:30;;;;;;;11.23;7.70;;;0.20;99.90;;;;;;5093469;28;20541;-77
2024/01/17 11:36:55;;;;;;;10.37;7.13;;;0.30;99.90;;;;;;5095601;28;20249;-78
2024/01/17 11:39:22;;;;;;;12.10;7.07;;;0.30;99.90;;;;;;5094079;28;20235;-78
2024/01/17 11:41:51;;;;;;;15.47;7.23;;;0.30;99.90;;;;;;5095282;28;20194;-77
2024/01/17 11:44:18;;;;;;;13.30;7.17;;;0.30;99.90;;;;;;5093949;28;20201;-78
2024/01/17 11:46:51;;;;;;;13.27;7.80;;;0.30;99.90;;;;;;5096683;28;20170;-78
2024/01/17 11:49:38;;;;;;;14.67;7.20;;;0.30;99.90;;;;;;5106790;28;20198;-77
2024/01/17 11:52:08;;;;;;;13.13;7.20;;;0.40;99.90;;;;;;5100029;28;20186;-77
2024/01/17 11:54:34;;;;;;;10.87;7.43;;;0.40;99.90;;;;;;5095214;28;20194;-77
2024/01/17 11:57:03;;;;;;;10.27;7.37;;;0.30;99.90;;;;;;5095032;28;20641;-77
2024/01/17 11:59:32;;;;;;;12.40;7.43;;;0.30;99.90;;;;;;5093752;28;20677;-77
2024/01/17 12:01:58;;;;;;;13.00;7.20;;;0.40;99.90;;;;;;5095074;28;20170;-78
2024/01/17 12:04:24;;;;;;;16.07;8.80;;;0.30;99.90;;;;;;5093570;28;20308;-78
2024/01/17 12:06:51;;;;;;;17.57;10.57;;;0.40;99.90;;;;;;5095452;28;20177;-78
2024/01/17 12:09:20;;;;;;;14.93;8.90;;;0.40;99.90;;;;;;5095162;28;20344;-78
2024/01/17 12:11:46;;;;;;;14.10;8.77;;;0.40;99.90;;;;;;5093531;28;20193;-78
2024/01/17 12:14:15;;;;;;;15.00;7.40;;;0.40;99.90;;;;;;5094365;28;20521;-78
2024/01/17 12:16:41;;;;;;;15.07;8.10;;;0.30;99.90;;;;;;5092599;28;20677;-75
2024/01/17 12:19:10;;;;;;;14.30;8.53;;;0.40;99.90;;;;;;5094185;28;20396;-77
2024/01/17 12:21:36;;;;;;;13.27;8.20;;;0.40;99.90;;;;;;5093663;28;20165;-77
2024/01/17 12:24:01;;;;;;;13.43;8.27;;;0.40;99.90;;;;;;5091862;28;20170;-76
2024/01/17 12:26:27;;;;;;;14.90;8.73;;;0.40;99.90;;;;;;5092569;28;20258;-77
2024/01/17 12:29:06;;;;;;;12.60;8.23;;;0.40;99.90;;;;;;5093460;28;20558;-77
2024/01/17 12:31:31;;;;;;;12.40;8.10;;;0.40;99.90;;;;;;5093178;28;20594;-77
2024/01/17 12:33:57;;;;;;;13.10;8.63;;;0.40;99.90;;;;;;5093810;28;20209;-78